Terminal Aerodrome Forecast
Issued by NWS

Home | Current Version | Previous Version | Text Only | Print | Product List | Glossary On
Versions: 1 2 3 4 5 6 7 8 9 10 11 12 13 14
000
FTUS43 KILX 262300 RRA
TAFBMI
TAF
KBMI 262350Z 2700/2724 18008KT P6SM SCT020
     FM270300 19013KT P6SM BKN025
     FM270800 18012KT 4SM -DZ BR OVC015 WS020/22040KT
      TEMPO 2711/2714 -RA OVC007
     FM271400 21012KT 5SM -DZ BR OVC007
     FM271800 23013KT P6SM VCSH OVC009
     FM272100 27016KT P6SM OVC012=

USA.gov is the U.S. government's official web portal to all federal, state and local government web resources and services.